Startpagina
METAR-TAF:

METAR-TAF

Vliegvelden :

Aéroport Le Havre Octeville

Le Havre, Frankrijk

breedte: 49-31N, lengte: 000-04E, hoogte: 100 m

Actueel weer

Dit bericht is 31 minuten geleden gemaakt, om 20:00 UTC
Wind 10 kt uit het noordoosten
Temperatuur 15°C
Vochtigheid 59%
Druk 1003 hPa
Zicht 10 km of meer
geen wolken onder 1500 m en geen cumulonimbus

METAR: LFOH 032000Z AUTO 05010KT CAVOK 15/07 Q1003

Tijdstip: 22:31 (20:31 UTC)


TAF: ontbreekt

Waarnemingen en weersverwachtingen van meer dan 4000 vliegvelden (METAR en TAF).

De beschikbare stations zijn de gele en rode punten op de kaart.

Ga met uw muis naar het station om de naam te zien.

Klik dan om waarnemingen en weersverwachtingen te zien.

kaart wijzigen: klik op de groene knoppen met een zwart kruis om in te zoomen, op de groene knop met een streepje om uit te zoomen of op de groene pijlen voor aangrenzende kaarten.


METAR-TAF: